Time;durP1;ratioP1;P1;durP2;ratioP2;P2;SDS_P1;SDS_P2;PMS_P1;PMS_P2;Temp;Humidity;BMP_temperature;BMP_pressure;BME280_temperature;BME280_humidity;BME280_pressure;Samples;Min_cycle;Max_cycle;Signal;HPM_P1;HPM_P2
2022/10/07 00:00:54;;;;;;;6.77;3.10;;;17.20;72.30;;;-142.21;100.00;112049.66;5112154;28;20516;-71
2022/10/07 00:03:24;;;;;;;8.77;3.23;;;17.20;72.20;;;-142.21;100.00;112049.66;5110822;28;20419;-70
2022/10/07 00:06:04;;;;;;;6.03;3.30;;;17.20;72.20;;;-142.21;100.00;112049.66;5111782;28;20417;-70
2022/10/07 00:08:36;;;;;;;6.87;3.43;;;17.20;72.30;;;-142.21;100.00;112049.66;5111932;28;20445;-70
2022/10/07 00:11:07;;;;;;;7.40;3.47;;;17.20;72.30;;;-142.21;100.00;112049.66;5111238;28;20418;-70
2022/10/07 00:13:35;;;;;;;8.27;3.27;;;17.20;72.20;;;-142.21;100.00;112049.66;5112076;28;20432;-70
2022/10/07 00:16:09;;;;;;;3.93;3.53;;;17.20;72.00;;;-142.21;100.00;112049.66;5111114;28;20944;-70
2022/10/07 00:18:37;;;;;;;4.70;3.20;;;17.20;72.00;;;-142.21;100.00;112049.66;5111863;28;20981;-70
2022/10/07 00:21:10;;;;;;;4.70;2.90;;;17.20;72.00;;;-142.21;100.00;112049.66;5111155;28;20902;-70
2022/10/07 00:23:38;;;;;;;3.60;2.80;;;17.10;72.10;;;-142.21;100.00;112049.66;5111772;28;20917;-70
2022/10/07 00:26:11;;;;;;;6.43;3.37;;;17.20;72.20;;;-142.21;100.00;112049.66;5111363;28;20469;-70
2022/10/07 00:28:38;;;;;;;6.13;3.33;;;17.10;72.20;;;-142.21;100.00;112049.66;5111854;28;20800;-70
2022/10/07 00:31:09;;;;;;;5.73;3.30;;;17.10;72.20;;;-142.21;100.00;112049.66;5111347;28;20444;-70
2022/10/07 00:33:39;;;;;;;8.37;3.53;;;17.20;72.20;;;-142.21;100.00;112049.66;5093423;28;20430;-70
2022/10/07 00:36:10;;;;;;;5.97;3.47;;;17.20;72.00;;;-142.21;100.00;112049.66;5111132;28;20969;-70
2022/10/07 00:38:37;;;;;;;9.33;3.30;;;17.20;71.90;;;-142.21;100.00;112049.66;5111801;28;20552;-70
2022/10/07 00:41:05;;;;;;;3.40;2.97;;;17.20;71.40;;;-142.21;100.00;112049.66;5110725;28;20485;-70
2022/10/07 00:43:33;;;;;;;7.23;3.20;;;17.20;71.30;;;-142.21;100.00;112049.66;5111766;28;20437;-70
2022/10/07 00:46:07;;;;;;;7.50;3.23;;;17.10;71.20;;;-142.21;100.00;112049.66;5110760;28;20532;-70
2022/10/07 00:48:39;;;;;;;6.40;3.00;;;17.10;71.40;;;-142.21;100.00;112049.66;5111495;28;20858;-70
2022/10/07 00:51:09;;;;;;;4.23;2.90;;;17.10;71.70;;;-142.21;100.00;112049.66;5059200;28;20441;-70
2022/10/07 00:53:40;;;;;;;6.40;3.23;;;17.10;71.30;;;-142.21;100.00;112049.66;5112098;28;20575;-70
2022/10/07 00:56:09;;;;;;;4.90;3.00;;;17.10;71.30;;;-142.21;100.00;112049.66;5111229;28;20476;-71
2022/10/07 00:58:41;;;;;;;5.10;3.40;;;17.10;71.40;;;-142.21;100.00;112049.66;5111260;28;21016;-70
2022/10/07 01:01:10;;;;;;;5.53;2.80;;;17.10;71.60;;;-142.21;100.00;112049.66;5111049;28;20497;-70
2022/10/07 01:03:38;;;;;;;5.90;2.77;;;17.10;71.30;;;-142.21;100.00;112049.66;5111252;28;20863;-70
2022/10/07 01:06:09;;;;;;;4.87;2.73;;;17.10;71.20;;;-142.21;100.00;112049.66;5110925;28;20476;-70
2022/10/07 01:08:36;;;;;;;4.13;2.53;;;17.10;71.30;;;-142.21;100.00;112049.66;5111679;28;20556;-70
2022/10/07 01:11:22;;;;;;;4.67;2.80;;;17.00;71.20;;;-142.21;100.00;112049.66;5110459;28;20943;-70
2022/10/07 01:14:06;;;;;;;6.07;2.83;;;17.00;71.50;;;-142.21;100.00;112049.66;5111477;28;20509;-70
2022/10/07 01:16:44;;;;;;;3.23;2.30;;;17.00;71.50;;;-142.21;100.00;112049.66;5114191;28;20422;-69
2022/10/07 01:19:55;;;;;;;7.57;3.30;;;17.00;71.40;;;-142.21;100.00;112049.66;5114460;28;20512;-70
2022/10/07 01:22:40;;;;;;;4.00;2.50;;;17.10;71.30;;;-142.21;100.00;112049.66;5114510;28;20491;-70
2022/10/07 01:25:27;;;;;;;5.00;2.73;;;17.00;71.10;;;-142.21;100.00;112049.66;5114494;28;20524;-70
2022/10/07 01:28:04;;;;;;;5.67;2.70;;;17.00;70.90;;;-142.21;100.00;112049.66;5114990;28;20504;-70
2022/10/07 01:30:40;;;;;;;4.87;3.13;;;17.00;70.80;;;-142.21;100.00;112049.66;5114018;28;20428;-71
2022/10/07 01:33:14;;;;;;;4.13;2.77;;;17.00;71.00;;;-142.21;100.00;112049.66;5113503;28;20913;-70
2022/10/07 01:35:47;;;;;;;4.73;2.80;;;17.00;71.10;;;-142.21;100.00;112049.66;5114895;28;20425;-70
2022/10/07 01:38:19;;;;;;;4.93;2.43;;;17.00;71.00;;;-142.21;100.00;112049.66;5113785;28;20449;-70
2022/10/07 01:40:54;;;;;;;6.23;2.37;;;17.00;71.10;;;-142.21;100.00;112049.66;5114342;28;20564;-70
2022/10/07 01:43:23;;;;;;;4.70;2.47;;;17.00;71.20;;;-142.21;100.00;112049.66;5114162;28;20457;-70
2022/10/07 01:45:54;;;;;;;5.17;3.23;;;17.00;71.30;;;-142.21;100.00;112049.66;5114532;28;20445;-70
2022/10/07 01:48:21;;;;;;;6.57;2.87;;;17.00;71.10;;;-142.21;100.00;112049.66;5113721;28;20520;-70
2022/10/07 01:50:52;;;;;;;5.47;2.60;;;17.00;70.90;;;-142.21;99.96;112049.66;5114666;28;20433;-70
2022/10/07 01:53:40;;;;;;;4.43;2.10;;;17.00;70.70;;;-142.21;100.00;112049.66;5061906;28;20449;-70
2022/10/07 01:56:34;;;;;;;5.27;2.40;;;17.00;70.80;;;-142.21;100.00;112049.66;5061165;28;20540;-70
2022/10/07 01:59:36;;;;;;;3.20;2.17;;;17.00;70.80;;;-142.21;99.75;112049.66;5113933;28;20436;-70
2022/10/07 02:02:18;;;;;;;7.67;2.50;;;17.00;70.80;;;-142.21;99.59;112049.66;5114410;28;20465;-70
2022/10/07 02:04:58;;;;;;;4.87;2.20;;;17.00;70.60;;;-142.21;99.62;112049.66;5114108;28;20421;-70
2022/10/07 02:07:37;;;;;;;4.97;2.67;;;16.90;70.50;;;-142.21;99.36;112049.66;5113624;28;20513;-71
2022/10/07 02:10:17;;;;;;;5.33;2.80;;;16.90;70.50;;;-142.21;99.59;112049.66;5096691;28;20421;-71
2022/10/07 02:12:52;;;;;;;5.10;2.13;;;17.00;70.60;;;-142.21;99.17;112049.66;5097180;28;20428;-70
2022/10/07 02:15:26;;;;;;;9.20;2.60;;;16.90;70.30;;;-142.21;98.21;112049.66;5113660;28;20512;-71
2022/10/07 02:18:01;;;;;;;5.23;2.77;;;17.00;70.00;;;-142.21;98.26;112049.66;5113947;28;20438;-70
2022/10/07 02:20:34;;;;;;;8.33;2.50;;;17.00;69.90;;;-142.21;98.74;112049.66;5113501;28;20440;-70
2022/10/07 02:23:07;;;;;;;2.80;2.30;;;17.00;70.00;;;-142.21;98.04;112049.66;5113779;28;20472;-70
2022/10/07 02:25:42;;;;;;;4.23;2.80;;;17.00;69.50;;;-142.21;98.21;112049.66;5114029;28;20458;-70
2022/10/07 02:28:12;;;;;;;7.70;2.63;;;17.00;69.50;;;-142.21;97.86;112049.66;5111654;28;20512;-70
2022/10/07 02:30:44;;;;;;;2.80;2.30;;;17.00;69.50;;;-142.21;98.04;112049.66;5113829;28;20450;-70
2022/10/07 02:33:14;;;;;;;4.60;2.40;;;17.00;69.60;;;-142.21;98.16;112049.66;5112899;28;20448;-70
2022/10/07 02:35:47;;;;;;;4.23;2.33;;;16.90;69.40;;;-142.21;97.97;112049.66;5113768;28;20447;-70
2022/10/07 02:38:17;;;;;;;4.07;2.77;;;16.90;69.50;;;-142.21;97.80;112049.66;5112727;28;20449;-70
2022/10/07 02:40:58;;;;;;;6.40;2.50;;;16.90;69.40;;;-142.21;97.73;112049.66;5062009;28;20477;-70
2022/10/07 02:43:35;;;;;;;3.77;2.27;;;16.90;69.40;;;-142.21;97.84;112049.66;5112268;28;21056;-71
2022/10/07 02:46:09;;;;;;;5.27;2.40;;;16.90;69.50;;;-142.21;98.20;112049.66;5113637;28;20778;-71
2022/10/07 02:48:43;;;;;;;4.77;2.30;;;16.90;69.70;;;-142.21;98.50;112049.66;5113385;28;20524;-71
2022/10/07 02:51:18;;;;;;;4.37;2.47;;;16.90;69.80;;;-142.21;98.11;112049.66;5112932;28;20421;-71
2022/10/07 02:53:49;;;;;;;4.90;2.47;;;16.90;69.60;;;-142.21;98.68;112049.66;5112914;28;20429;-71
2022/10/07 02:56:21;;;;;;;5.67;2.57;;;16.90;70.00;;;-142.21;98.57;112049.66;5112446;28;20433;-71
2022/10/07 02:58:49;;;;;;;4.63;2.40;;;16.90;69.80;;;-142.21;98.57;112049.66;5113184;28;20425;-71
2022/10/07 03:01:26;;;;;;;6.17;2.50;;;16.90;69.60;;;-142.21;98.23;112049.66;5112101;28;20449;-71
2022/10/07 03:03:53;;;;;;;4.73;2.23;;;16.90;69.70;;;-142.21;98.09;112049.66;5112882;28;20436;-71
2022/10/07 03:06:22;;;;;;;4.17;2.13;;;16.80;69.40;;;-142.21;97.67;112049.66;5112842;28;20448;-70
2022/10/07 03:08:51;;;;;;;3.63;1.93;;;16.80;69.30;;;-142.21;97.77;112049.66;5112859;28;20816;-69
2022/10/07 03:11:18;;;;;;;3.50;2.63;;;16.80;69.40;;;-142.21;97.50;112049.66;5111784;28;21063;-69
2022/10/07 03:13:45;;;;;;;4.43;2.50;;;16.80;69.40;;;-142.21;97.78;112049.66;5113006;28;20437;-71
2022/10/07 03:16:12;;;;;;;6.07;2.73;;;16.80;69.40;;;-142.21;97.76;112049.66;5112278;28;20441;-70
2022/10/07 03:18:41;;;;;;;4.27;2.20;;;16.80;69.40;;;-142.21;97.17;112049.66;5112835;28;20448;-71
2022/10/07 03:21:08;;;;;;;2.83;2.00;;;16.80;69.30;;;-142.21;97.19;112049.66;5112573;28;20452;-71
2022/10/07 03:23:35;;;;;;;5.00;2.20;;;16.80;69.30;;;-142.21;96.38;112049.66;5112480;28;21019;-71
2022/10/07 03:26:02;;;;;;;4.70;2.17;;;16.80;69.10;;;-142.21;96.39;112049.66;5112388;28;20547;-71
2022/10/07 03:28:36;;;;;;;6.63;2.77;;;16.80;68.90;;;-142.21;96.52;112049.66;5112153;28;20492;-71
2022/10/07 03:31:08;;;;;;;5.03;2.53;;;16.80;68.90;;;-142.21;96.38;112049.66;5112201;28;20972;-71
2022/10/07 03:33:36;;;;;;;5.37;2.23;;;16.80;68.90;;;-142.21;95.91;112049.66;5112435;28;20956;-70
2022/10/07 03:36:07;;;;;;;5.87;2.10;;;16.70;68.50;;;-142.21;95.83;112049.66;5112557;28;20448;-70
2022/10/07 03:38:34;;;;;;;6.10;2.40;;;16.70;68.50;;;-142.21;96.08;112049.66;5112079;28;20453;-70
2022/10/07 03:41:05;;;;;;;3.43;2.20;;;16.70;68.60;;;-142.21;95.78;112049.66;5111952;28;20473;-70
2022/10/07 03:43:33;;;;;;;6.47;2.63;;;16.70;68.50;;;-142.21;95.05;112049.66;5111763;28;20822;-70
2022/10/07 03:46:01;;;;;;;3.63;2.20;;;16.70;68.20;;;-142.21;95.26;112049.66;5112319;28;20444;-69
2022/10/07 03:48:30;;;;;;;4.43;2.63;;;16.70;68.20;;;-142.21;94.70;112049.66;5111441;28;20503;-71
2022/10/07 03:50:57;;;;;;;6.63;2.53;;;16.70;67.90;;;-142.21;94.01;112049.66;5111835;28;20445;-71
2022/10/07 03:53:28;;;;;;;6.50;2.20;;;16.80;67.70;;;-142.21;93.84;112049.66;5111766;28;20476;-70
2022/10/07 03:55:56;;;;;;;8.00;2.10;;;16.70;67.50;;;-142.21;93.23;112049.66;5112053;28;20823;-71
2022/10/07 03:58:23;;;;;;;5.23;2.13;;;16.70;67.20;;;-142.21;92.91;112049.66;5111629;28;20532;-71
2022/10/07 04:00:50;;;;;;;5.57;2.37;;;16.70;67.00;;;-142.21;92.49;112049.66;5112097;28;20445;-71
2022/10/07 04:03:18;;;;;;;3.20;2.23;;;16.70;66.60;;;-142.21;92.41;112049.66;5111172;28;20513;-71
2022/10/07 04:05:57;;;;;;;2.87;1.90;;;16.70;66.60;;;-142.21;92.47;112049.66;5111686;28;20499;-70
2022/10/07 04:08:28;;;;;;;3.83;2.30;;;16.70;66.60;;;-142.21;92.13;112049.66;5111434;28;20445;-70
2022/10/07 04:10:56;;;;;;;7.00;2.60;;;16.70;66.40;;;-142.21;92.34;112049.66;5111858;28;20426;-70
2022/10/07 04:13:23;;;;;;;4.17;2.30;;;16.70;66.40;;;-142.21;92.33;112049.66;5111342;28;20486;-70
2022/10/07 04:15:50;;;;;;;3.40;2.00;;;16.70;66.40;;;-142.21;92.48;112049.66;5111589;28;20937;-70
2022/10/07 04:18:17;;;;;;;4.07;2.10;;;16.60;66.30;;;-142.21;92.30;112049.66;5111208;28;20453;-70
2022/10/07 04:20:44;;;;;;;6.27;2.20;;;16.70;66.50;;;-142.21;91.72;112049.66;5111960;28;20448;-69
2022/10/07 04:23:12;;;;;;;3.80;2.00;;;16.70;66.20;;;-142.21;91.45;112049.66;5110607;28;20516;-69
2022/10/07 04:25:44;;;;;;;4.50;2.07;;;16.60;66.00;;;-142.21;91.34;112049.66;5111924;28;20524;-71
2022/10/07 04:28:24;;;;;;;3.63;2.03;;;16.60;65.80;;;-142.21;91.65;112049.66;5111474;28;20992;-71
2022/10/07 04:30:53;;;;;;;3.60;2.00;;;16.60;65.80;;;-142.21;91.38;112049.66;5111702;28;20465;-71
2022/10/07 04:33:23;;;;;;;3.30;1.73;;;16.60;65.80;;;-142.21;91.41;112049.66;5111350;28;20437;-71
2022/10/07 04:35:51;;;;;;;7.03;2.27;;;16.60;65.80;;;-142.21;91.36;112049.66;5112034;28;20440;-70
2022/10/07 04:38:19;;;;;;;4.00;2.10;;;16.60;65.90;;;-142.21;90.96;112049.66;5110847;28;20936;-71
2022/10/07 04:40:50;;;;;;;5.37;1.90;;;16.60;65.60;;;-142.21;90.54;112049.66;5111232;28;20466;-71
2022/10/07 04:43:22;;;;;;;4.67;1.50;;;16.60;65.50;;;-142.21;90.35;112049.66;5111071;28;20526;-70
2022/10/07 04:45:53;;;;;;;6.87;2.17;;;16.60;65.40;;;-142.21;90.66;112049.66;5111422;28;20513;-70
2022/10/07 04:48:23;;;;;;;5.07;1.90;;;16.60;65.40;;;-142.21;90.75;112049.66;5110794;28;20921;-70
2022/10/07 04:50:51;;;;;;;9.97;2.10;;;16.60;65.50;;;-142.21;91.04;112049.66;5114028;28;20504;-70
2022/10/07 04:53:19;;;;;;;4.60;1.90;;;16.60;65.60;;;-142.21;91.73;112049.66;5114847;28;20805;-70
2022/10/07 04:55:50;;;;;;;6.10;2.23;;;16.50;65.60;;;-142.21;91.48;112049.66;5115806;28;20808;-70
2022/10/07 04:58:19;;;;;;;7.03;2.40;;;16.50;65.70;;;-142.21;91.77;112049.66;5114918;28;20760;-70
2022/10/07 05:00:49;;;;;;;5.27;2.10;;;16.50;65.80;;;-142.21;91.88;112049.66;5115610;28;20506;-70
2022/10/07 05:03:19;;;;;;;3.50;2.10;;;16.50;65.80;;;-142.21;91.96;112049.66;5115114;28;20492;-71
2022/10/07 05:05:49;;;;;;;4.33;2.27;;;16.50;65.80;;;-142.21;91.63;112049.66;5115079;28;20549;-69
2022/10/07 05:08:18;;;;;;;4.37;1.83;;;16.40;65.80;;;-142.21;91.77;112049.66;5114670;28;20534;-70
2022/10/07 05:10:46;;;;;;;6.17;2.67;;;16.40;66.00;;;-142.21;92.49;112049.66;5114948;28;20480;-69
2022/10/07 05:13:16;;;;;;;4.60;2.33;;;16.40;66.30;;;-142.21;92.37;112049.66;5115145;28;20524;-71
2022/10/07 05:15:54;;;;;;;4.63;2.53;;;16.40;66.30;;;-142.21;92.54;112049.66;5115348;28;20422;-71
2022/10/07 05:18:22;;;;;;;6.03;3.13;;;16.40;66.40;;;-142.21;92.73;112049.66;5114862;28;20419;-70
2022/10/07 05:20:51;;;;;;;4.47;2.97;;;16.40;66.40;;;-142.21;92.98;112049.66;5115322;28;20468;-70
2022/10/07 05:23:21;;;;;;;3.63;2.60;;;16.40;66.60;;;-142.21;93.06;112049.66;5114231;28;20477;-70
2022/10/07 05:25:57;;;;;;;6.53;2.60;;;16.40;66.60;;;-142.21;93.25;112049.66;5115006;28;20431;-71
2022/10/07 05:28:26;;;;;;;4.20;2.67;;;16.40;66.60;;;-142.21;93.51;112049.66;5114473;28;20452;-70
2022/10/07 05:31:06;;;;;;;5.47;2.60;;;16.40;66.90;;;-142.21;93.90;112049.66;5115071;28;20847;-70
2022/10/07 05:33:33;;;;;;;6.67;3.70;;;16.40;67.20;;;-142.21;94.49;112049.66;5114018;28;20520;-70
2022/10/07 05:36:01;;;;;;;7.30;3.33;;;16.40;67.20;;;-142.21;94.44;112049.66;5096593;28;20800;-70
2022/10/07 05:38:28;;;;;;;5.37;3.60;;;16.40;67.20;;;-142.21;94.80;112049.66;5114062;28;20456;-70
2022/10/07 05:40:58;;;;;;;8.17;4.03;;;16.40;67.30;;;-142.21;94.80;112049.66;5114164;28;20832;-70
2022/10/07 05:43:29;;;;;;;5.80;3.70;;;16.30;67.20;;;-142.21;95.00;112049.66;5114355;28;20477;-70
2022/10/07 05:46:01;;;;;;;6.37;3.50;;;16.30;67.40;;;-142.21;94.34;112049.66;5114767;28;20429;-70
2022/10/07 05:48:29;;;;;;;6.67;3.47;;;16.30;67.20;;;-142.21;94.43;112049.66;5113604;28;20513;-70
2022/10/07 05:50:56;;;;;;;5.17;3.57;;;16.30;67.20;;;-142.21;94.68;112049.66;5113926;28;20437;-70
2022/10/07 05:53:24;;;;;;;7.47;4.40;;;16.30;67.30;;;-142.21;95.18;112049.66;5113528;28;20464;-70
2022/10/07 05:55:51;;;;;;;7.67;3.50;;;16.30;67.40;;;-142.21;95.48;112049.66;5114047;28;20468;-70
2022/10/07 05:58:19;;;;;;;7.80;3.63;;;16.30;67.80;;;-142.21;95.69;112049.66;5113589;28;20445;-70
2022/10/07 06:00:56;;;;;;;5.73;3.97;;;16.30;67.90;;;-142.21;95.76;112049.66;5114153;28;20540;-70
2022/10/07 06:03:25;;;;;;;6.10;3.47;;;16.30;68.10;;;-142.21;95.79;112049.66;5113467;28;20501;-70
2022/10/07 06:05:54;;;;;;;5.03;3.20;;;16.30;68.40;;;-142.21;95.87;112049.66;5113954;28;20465;-70
2022/10/07 06:08:23;;;;;;;5.37;3.30;;;16.30;68.30;;;-142.21;96.02;112049.66;5113652;28;20573;-70
2022/10/07 06:13:38;;;;;;;8.90;3.93;;;16.30;68.50;;;-142.21;96.61;112049.66;5113641;28;20416;-70
2022/10/07 06:16:09;;;;;;;11.07;3.80;;;16.30;68.60;;;-142.21;96.18;112049.66;5113773;28;20414;-70
2022/10/07 06:18:37;;;;;;;11.47;4.17;;;16.30;68.60;;;-142.21;95.85;112049.66;5113184;28;20438;-69
2022/10/07 06:21:05;;;;;;;9.87;3.53;;;16.30;68.30;;;-142.21;95.97;112049.66;5113801;28;20440;-70
2022/10/07 06:23:36;;;;;;;5.90;3.53;;;16.30;68.30;;;-142.21;95.94;112049.66;5113230;28;20520;-71
2022/10/07 06:26:07;;;;;;;8.10;3.77;;;16.20;68.20;;;-142.21;95.95;112049.66;5113666;28;20430;-70
2022/10/07 06:28:37;;;;;;;6.87;3.70;;;16.30;68.50;;;-142.21;96.26;112049.66;5113178;28;20497;-70
2022/10/07 06:31:07;;;;;;;7.07;3.77;;;16.30;68.50;;;-142.21;96.06;112049.66;5113857;28;20529;-70
2022/10/07 06:33:35;;;;;;;6.80;3.80;;;16.20;68.20;;;-142.21;96.15;112049.66;5113240;28;20432;-70
2022/10/07 06:36:03;;;;;;;5.80;3.93;;;16.20;68.20;;;-142.21;96.00;112049.66;5113120;28;20945;-70
2022/10/07 06:38:31;;;;;;;9.07;3.97;;;16.20;68.10;;;-142.21;95.86;112049.66;5112754;28;20445;-70
2022/10/07 06:41:00;;;;;;;7.17;3.70;;;16.20;68.20;;;-142.21;95.94;112049.66;5113792;28;20530;-71
2022/10/07 06:43:28;;;;;;;6.83;4.10;;;16.30;68.30;;;-142.21;96.45;112049.66;5112960;28;20481;-70
2022/10/07 06:46:00;;;;;;;8.80;4.00;;;16.20;68.60;;;-142.21;96.35;112049.66;5113439;28;20434;-70
2022/10/07 06:48:31;;;;;;;8.77;4.63;;;16.30;68.50;;;-142.21;95.55;112049.66;5112208;28;20442;-70
2022/10/07 06:51:02;;;;;;;9.23;4.23;;;16.30;68.10;;;-142.21;95.28;112049.66;5113115;28;20425;-71
2022/10/07 06:53:30;;;;;;;6.00;3.90;;;16.30;67.90;;;-142.21;95.66;112049.66;5112671;28;20422;-70
2022/10/07 06:56:02;;;;;;;7.73;3.87;;;16.30;67.90;;;-142.21;95.70;112049.66;5113299;28;20473;-70
2022/10/07 06:58:30;;;;;;;8.40;3.90;;;16.30;68.80;;;-142.21;95.36;112049.66;5112475;28;20517;-69
2022/10/07 07:00:59;;;;;;;5.17;4.23;;;16.30;68.00;;;-142.21;95.14;112049.66;5112790;28;20995;-69
2022/10/07 07:03:29;;;;;;;8.83;4.47;;;16.30;67.70;;;-142.21;94.90;112049.66;5112038;28;20521;-70
2022/10/07 07:05:57;;;;;;;12.17;4.67;;;16.30;67.50;;;-142.21;94.91;112049.66;5113049;28;20533;-69
2022/10/07 07:08:28;;;;;;;8.10;4.00;;;16.30;67.50;;;-142.21;95.01;112049.66;5111955;28;20446;-69
2022/10/07 07:10:55;;;;;;;6.97;4.20;;;16.30;67.40;;;-142.21;94.55;112049.66;5113077;28;20438;-70
2022/10/07 07:13:23;;;;;;;8.80;4.20;;;16.30;67.40;;;-142.21;95.21;112049.66;5111794;28;20831;-71
2022/10/07 07:15:58;;;;;;;8.17;3.87;;;16.30;67.70;;;-142.21;94.36;112049.66;5112944;28;20945;-70
2022/10/07 07:18:26;;;;;;;9.27;4.03;;;16.30;67.40;;;-142.21;94.73;112049.66;5112179;28;20835;-70
2022/10/07 07:20:56;;;;;;;8.00;4.40;;;16.30;67.30;;;-142.21;95.03;112049.66;5112520;28;20491;-69
2022/10/07 07:23:25;;;;;;;7.87;4.90;;;16.30;67.50;;;-142.21;95.41;112049.66;5112055;28;20874;-70
2022/10/07 07:25:52;;;;;;;6.53;3.67;;;16.30;67.70;;;-142.21;94.74;112049.66;5112426;28;20448;-70
2022/10/07 07:28:19;;;;;;;8.63;3.60;;;16.30;67.50;;;-142.21;94.33;112049.66;5112639;28;20833;-70
2022/10/07 07:30:49;;;;;;;9.03;4.70;;;16.30;67.30;;;-142.21;94.21;112049.66;5112676;28;20444;-70
2022/10/07 07:33:17;;;;;;;10.97;4.33;;;16.30;67.20;;;-142.21;93.78;112049.66;5111983;28;20437;-70
2022/10/07 07:35:47;;;;;;;8.37;3.73;;;16.30;67.00;;;-142.21;93.60;112049.66;5111738;28;20471;-70
2022/10/07 07:38:15;;;;;;;7.57;3.33;;;16.40;66.90;;;-142.21;93.83;112049.66;5112375;28;20449;-69
2022/10/07 07:40:43;;;;;;;6.07;4.20;;;16.40;66.90;;;-142.21;94.20;112049.66;5111364;28;20488;-70
2022/10/07 07:43:11;;;;;;;10.43;4.00;;;16.40;67.10;;;-142.21;94.00;112049.66;5112005;28;20481;-70
2022/10/07 07:45:39;;;;;;;9.13;4.10;;;16.40;67.00;;;-142.21;93.54;112049.66;5111773;28;20437;-70
2022/10/07 07:48:06;;;;;;;9.73;4.27;;;16.50;67.00;;;-142.21;93.67;112049.66;5111816;28;20502;-71
2022/10/07 07:50:34;;;;;;;5.77;3.60;;;16.50;66.70;;;-142.21;93.88;112049.66;5111776;28;20442;-70
2022/10/07 07:53:03;;;;;;;9.00;4.03;;;16.60;66.80;;;-142.21;93.80;112049.66;5112201;28;20437;-70
2022/10/07 07:55:32;;;;;;;11.13;4.30;;;16.60;66.70;;;-142.21;93.27;112049.66;5111750;28;20453;-70
2022/10/07 07:57:59;;;;;;;8.27;4.10;;;16.60;66.50;;;-142.21;93.04;112049.66;5111877;28;20445;-70
2022/10/07 08:00:27;;;;;;;6.87;3.80;;;16.70;66.50;;;-142.21;93.17;112049.66;5111524;28;20441;-70
2022/10/07 08:02:54;;;;;;;7.93;3.90;;;16.70;66.40;;;-142.21;93.52;112049.66;5111584;28;20930;-70
2022/10/07 08:05:22;;;;;;;9.43;4.50;;;16.80;66.70;;;-142.21;92.75;112049.66;5111706;28;20449;-70
2022/10/07 08:07:51;;;;;;;7.23;4.00;;;16.70;66.30;;;-142.21;92.53;112049.66;5112043;28;20453;-70
2022/10/07 08:10:18;;;;;;;7.33;3.83;;;16.80;66.30;;;-142.21;91.99;112049.66;5112143;28;20532;-71
2022/10/07 08:12:48;;;;;;;8.27;4.00;;;16.80;65.90;;;-142.21;91.60;112049.66;5111318;28;20463;-71
2022/10/07 08:15:16;;;;;;;5.53;3.60;;;16.90;66.00;;;-142.21;91.21;112049.66;5111585;28;20494;-71
2022/10/07 08:17:43;;;;;;;10.13;3.73;;;16.90;65.70;;;-142.21;92.01;112049.66;5111142;28;20520;-70
2022/10/07 08:20:14;;;;;;;9.33;3.83;;;16.90;66.00;;;-142.21;91.92;112049.66;5111452;28;20449;-70
2022/10/07 08:22:44;;;;;;;11.00;4.03;;;17.00;66.10;;;-142.21;91.56;112049.66;5111153;28;20525;-71
2022/10/07 08:25:12;;;;;;;7.33;4.10;;;17.00;65.70;;;-142.21;91.60;112049.66;5112717;28;20713;-70
2022/10/07 08:27:39;;;;;;;10.53;4.13;;;17.00;65.60;;;-142.21;91.46;112049.66;5115217;28;20437;-70
2022/10/07 08:30:10;;;;;;;9.13;4.30;;;17.10;65.80;;;-142.21;90.06;112049.66;5115936;28;20519;-70
2022/10/07 08:32:38;;;;;;;7.93;3.80;;;17.20;65.90;;;-142.21;90.26;112049.66;5115342;28;20498;-70
2022/10/07 08:35:06;;;;;;;8.67;4.53;;;17.30;65.80;;;-142.21;90.78;112049.66;5115684;28;20926;-70
2022/10/07 08:37:34;;;;;;;6.17;3.60;;;17.40;65.20;;;-142.21;90.09;112049.66;5115106;28;20441;-70
2022/10/07 08:40:01;;;;;;;8.67;3.80;;;17.50;64.90;;;-142.21;89.09;112049.66;5115258;28;20487;-70
2022/10/07 08:42:38;;;;;;;6.87;3.50;;;17.60;64.70;;;-142.21;88.08;112049.66;5115102;28;20499;-70
2022/10/07 08:45:15;;;;;;;6.43;3.23;;;17.70;64.40;;;-142.21;86.57;112049.66;5115278;28;20461;-71
2022/10/07 08:47:47;;;;;;;5.00;3.33;;;17.80;63.30;;;-142.21;87.57;112049.66;5115031;28;20432;-71
2022/10/07 08:50:18;;;;;;;8.23;3.73;;;17.90;63.50;;;-142.21;87.29;112049.66;5115621;28;20425;-71
2022/10/07 08:52:52;;;;;;;10.40;4.10;;;18.10;63.80;;;-142.21;85.64;112049.66;5062552;28;20459;-71
2022/10/07 08:55:30;;;;;;;5.47;3.70;;;18.30;63.30;;;-142.21;84.87;112049.66;5115290;28;20882;-71
2022/10/07 08:58:32;;;;;;;8.70;3.53;;;18.40;62.60;;;-142.21;83.99;112049.66;5115389;28;20524;-70
2022/10/07 09:01:17;;;;;;;5.10;3.60;;;18.60;62.10;;;-142.21;83.17;112049.66;5115170;28;20425;-71
2022/10/07 09:03:55;;;;;;;7.63;3.57;;;18.70;61.60;;;-142.21;83.85;112049.66;5114483;28;20214;-70
2022/10/07 09:06:31;;;;;;;5.50;3.20;;;18.80;61.50;;;-142.21;81.92;112049.66;5115481;28;20429;-70
2022/10/07 09:09:04;;;;;;;6.50;3.30;;;18.90;60.90;;;-142.21;81.37;112049.66;5115504;28;20294;-70
2022/10/07 09:11:34;;;;;;;5.13;3.17;;;19.00;61.00;;;-142.21;80.59;112049.66;5114480;28;20504;-69
2022/10/07 09:14:18;;;;;;;6.33;3.00;;;19.10;60.40;;;-142.21;80.70;112049.66;5114887;28;20247;-70
2022/10/07 09:16:49;;;;;;;4.40;2.80;;;19.20;60.30;;;-142.21;78.40;112049.66;5114431;28;20223;-70
2022/10/07 09:19:26;;;;;;;7.40;3.17;;;19.30;59.60;;;-142.21;78.35;112049.66;5114872;28;20654;-70
2022/10/07 09:22:04;;;;;;;4.00;2.70;;;19.50;59.50;;;-142.21;78.07;112049.66;5114951;28;20236;-70
2022/10/07 09:24:34;;;;;;;4.93;2.67;;;19.60;59.40;;;-142.21;79.11;112049.66;5065866;28;20265;-70
2022/10/07 09:27:21;;;;;;;4.53;2.43;;;19.70;59.80;;;-142.21;76.95;112049.66;5115102;28;20188;-70
2022/10/07 09:29:50;;;;;;;4.67;2.97;;;19.90;59.30;;;-142.21;75.99;112049.66;5113787;28;20714;-70
2022/10/07 09:32:20;;;;;;;5.90;2.80;;;20.00;58.90;;;-142.21;75.39;112049.66;5114867;28;20211;-70
2022/10/07 09:34:47;;;;;;;6.33;2.80;;;20.20;58.90;;;-142.21;73.35;112049.66;5114290;28;20566;-71
2022/10/07 09:37:21;;;;;;;6.93;3.07;;;20.30;58.10;;;-142.21;73.64;112049.66;5114112;28;20706;-69
2022/10/07 09:39:52;;;;;;;8.93;3.20;;;20.50;58.10;;;-142.21;72.95;112049.66;5113761;28;20238;-70
2022/10/07 09:42:35;;;;;;;5.60;3.13;;;20.60;57.60;;;-142.21;70.83;112049.66;5114147;28;20184;-70
2022/10/07 09:45:23;;;;;;;6.53;2.43;;;20.80;57.00;;;-142.21;72.46;112049.66;5114829;28;20204;-69
2022/10/07 09:47:56;;;;;;;6.53;2.90;;;20.90;57.20;;;-142.21;71.39;112049.66;5113689;28;20199;-70
2022/10/07 09:50:36;;;;;;;6.07;2.90;;;21.10;57.30;;;-142.21;72.07;112049.66;5061794;28;20231;-71
2022/10/07 09:53:05;;;;;;;5.80;3.00;;;21.30;57.20;;;-142.21;68.61;112049.66;5114227;28;20194;-70
2022/10/07 09:55:39;;;;;;;5.37;2.73;;;21.40;56.60;;;-142.21;66.75;112049.66;5113614;28;20655;-70
2022/10/07 09:58:18;;;;;;;5.07;2.70;;;21.50;55.90;;;-142.21;67.49;112049.66;5114700;28;20411;-70
2022/10/07 10:00:48;;;;;;;5.97;2.70;;;21.60;56.10;;;-142.21;66.17;112049.66;5113637;28;20703;-69
2022/10/07 10:03:19;;;;;;;6.13;2.90;;;21.60;55.70;;;-142.21;65.75;112049.66;5113954;28;20203;-70
2022/10/07 10:05:56;;;;;;;6.70;2.90;;;21.70;55.50;;;-142.21;67.97;112049.66;5113309;28;20300;-70
2022/10/07 10:08:28;;;;;;;6.87;2.80;;;21.70;55.70;;;-142.21;67.01;112049.66;5114295;28;20619;-71
2022/10/07 10:10:58;;;;;;;5.53;2.83;;;21.80;55.50;;;-142.21;67.61;112049.66;5113920;28;20279;-70
2022/10/07 10:13:30;;;;;;;5.53;2.87;;;22.00;55.80;;;-142.21;65.77;112049.66;5113734;28;20236;-70
2022/10/07 10:15:59;;;;;;;6.23;2.60;;;22.10;55.90;;;-142.21;65.27;112049.66;5114117;28;20187;-70
2022/10/07 10:18:34;;;;;;;5.53;2.83;;;22.20;55.10;;;-142.21;65.74;112049.66;5114157;28;20243;-71